createdAt,value
2023-04-23T00:00:37.138Z,95287.94
2023-04-23T00:02:42.570Z,95290.59
2023-04-23T00:04:51.449Z,95225.34
2023-04-23T00:06:54.648Z,95261.59
2023-04-23T00:09:00.709Z,95220.25
2023-04-23T00:11:04.156Z,95287.88
2023-04-23T00:13:07.304Z,95297.03
2023-04-23T00:15:11.445Z,95297.25
2023-04-23T00:17:15.477Z,95303.22
2023-04-23T00:19:18.141Z,95298.06
2023-04-23T00:21:20.924Z,95288.41
2023-04-23T00:23:23.627Z,95298.69
2023-04-23T00:25:26.324Z,95297.09
2023-04-23T00:27:29.127Z,95300.88
2023-04-23T00:29:31.913Z,95257.63
2023-04-23T00:31:34.788Z,95302.03
2023-04-23T00:33:39.588Z,95307.56
2023-04-23T00:35:42.436Z,95305.66
2023-04-23T00:37:45.261Z,95307.59
2023-04-23T00:39:48.074Z,95319.53
2023-04-23T00:41:51.564Z,95307.75
2023-04-23T00:43:55.145Z,95313.75
2023-04-23T00:45:58.005Z,95268.88
2023-04-23T00:48:01.352Z,95296.47
2023-04-23T00:50:06.590Z,95297.50
2023-04-23T00:52:09.342Z,95303.47
2023-04-23T00:54:12.660Z,95273.47
2023-04-23T00:56:15.908Z,95264.78
2023-04-23T00:58:18.658Z,95310.38
2023-04-23T01:00:23.388Z,95314.75
2023-04-23T01:02:28.037Z,94943.81
2023-04-23T01:04:32.150Z,95306.41
2023-04-23T01:06:36.617Z,95312.22
2023-04-23T01:08:40.112Z,95280.78
2023-04-23T01:10:43.548Z,95307.09
2023-04-23T01:12:47.705Z,95264.22
2023-04-23T01:14:50.622Z,95315.78
2023-04-23T01:16:53.942Z,95237.63
2023-04-23T01:18:56.898Z,95321.09
2023-04-23T01:21:00.054Z,95183.63
2023-04-23T01:23:05.027Z,95125.16
2023-04-23T01:25:10.305Z,95151.09
2023-04-23T01:27:13.323Z,95319.63
2023-04-23T01:29:16.457Z,95357.06
2023-04-23T01:31:19.693Z,95318.59
2023-04-23T01:33:22.795Z,95322.91
2023-04-23T01:35:26.061Z,95318.38
2023-04-23T01:37:30.354Z,95318.13
2023-04-23T01:39:36.079Z,95314.09
2023-04-23T01:41:38.870Z,95304.69
2023-04-23T01:43:43.458Z,95114.59
2023-04-23T01:45:46.338Z,95328.44
2023-04-23T01:47:49.485Z,95317.41
2023-04-23T01:49:52.495Z,95331.09
2023-04-23T01:51:55.522Z,95351.47
2023-04-23T01:53:58.257Z,95272.44
2023-04-23T01:56:03.462Z,95350.06
2023-04-23T01:58:06.234Z,95158.03
2023-04-23T02:00:11.249Z,95343.06
2023-04-23T02:02:16.938Z,95342.78
2023-04-23T02:04:19.903Z,95303.53
2023-04-23T02:06:22.680Z,95338.78
2023-04-23T02:08:26.261Z,95340.06
2023-04-23T02:10:29.625Z,95342.75
2023-04-23T02:12:33.716Z,95335.75
2023-04-23T02:14:36.567Z,95204.53
2023-04-23T02:16:40.491Z,95337.31
2023-04-23T02:18:43.234Z,95334.59
2023-04-23T02:20:45.983Z,95337.00
2023-04-23T02:22:50.579Z,95345.59
2023-04-23T02:24:53.703Z,95327.25
2023-04-23T02:26:57.958Z,95324.66
2023-04-23T02:29:02.064Z,95330.03
2023-04-23T02:31:05.186Z,95343.47
2023-04-23T02:33:07.943Z,95338.03
2023-04-23T02:35:10.953Z,95351.47
2023-04-23T02:37:13.758Z,95339.31
2023-04-23T02:39:16.535Z,95355.75
2023-04-23T02:41:19.259Z,95337.94
2023-04-23T02:43:22.075Z,95335.78
2023-04-23T02:45:26.178Z,95287.97
2023-04-23T02:47:30.196Z,95341.16
2023-04-23T02:49:32.943Z,95349.50
2023-04-23T02:51:36.043Z,95172.75
2023-04-23T02:53:38.955Z,95265.44
2023-04-23T02:55:41.778Z,95336.56
2023-04-23T02:57:45.768Z,95338.44
2023-04-23T02:59:48.659Z,95306.72
2023-04-23T03:01:55.081Z,95313.44
2023-04-23T03:03:59.550Z,95290.06
2023-04-23T03:06:03.205Z,95333.31
2023-04-23T03:08:06.088Z,95258.97
2023-04-23T03:10:09.817Z,95297.34
2023-04-23T03:12:12.782Z,95326.59
2023-04-23T03:14:15.574Z,95321.47
2023-04-23T03:16:18.955Z,95320.41
2023-04-23T03:18:24.226Z,95319.59
2023-04-23T03:20:29.496Z,95281.47
2023-04-23T03:22:32.268Z,95318.53
2023-04-23T03:24:36.011Z,95322.38
2023-04-23T03:26:38.785Z,95290.97
2023-04-23T03:28:41.690Z,95318.34
2023-04-23T03:30:44.689Z,95332.38
2023-04-23T03:32:47.641Z,95150.88
2023-04-23T03:34:51.899Z,95334.28
2023-04-23T03:36:55.451Z,95338.31
2023-04-23T03:38:58.348Z,95343.16
2023-04-23T03:41:04.362Z,95339.66
2023-04-23T03:43:07.271Z,95246.69
2023-04-23T03:45:33.472Z,95176.63
2023-04-23T03:47:36.900Z,95232.19
2023-04-23T03:49:40.567Z,95308.53
2023-04-23T03:51:45.805Z,95338.09
2023-04-23T03:53:48.615Z,95247.78
2023-04-23T03:56:11.513Z,95320.91
2023-04-23T03:58:23.741Z,95340.75
2023-04-23T04:00:28.412Z,95352.91
2023-04-23T04:02:31.455Z,95338.13
2023-04-23T04:04:35.045Z,95343.47
2023-04-23T04:06:37.947Z,95337.56
2023-04-23T04:08:42.019Z,95182.28
2023-04-23T04:10:44.807Z,95335.69
2023-04-23T04:12:48.095Z,95341.63
2023-04-23T04:14:51.355Z,95341.34
2023-04-23T04:16:54.821Z,95347.81
2023-04-23T04:18:57.585Z,95344.31
2023-04-23T04:21:00.656Z,95338.66
2023-04-23T04:23:03.451Z,95333.81
2023-04-23T04:25:08.774Z,95330.59
2023-04-23T04:27:11.683Z,95335.72
2023-04-23T04:29:15.016Z,95351.31
2023-04-23T04:31:17.820Z,95350.25
2023-04-23T04:33:21.070Z,95341.38
2023-04-23T04:35:23.939Z,95333.84
2023-04-23T04:37:28.051Z,95338.97
2023-04-23T04:39:30.780Z,95291.38
2023-04-23T04:41:34.920Z,95331.97
2023-04-23T04:43:37.707Z,95326.88
2023-04-23T04:45:40.441Z,95334.66
2023-04-23T04:47:43.159Z,95333.03
2023-04-23T04:49:46.096Z,95341.66
2023-04-23T04:51:48.854Z,95337.63
2023-04-23T04:53:51.643Z,95336.00
2023-04-23T04:55:54.404Z,95351.34
2023-04-23T04:57:58.522Z,95182.03
2023-04-23T05:00:05.023Z,95358.59
2023-04-23T05:02:07.923Z,95339.22
2023-04-23T05:04:10.928Z,95336.00
2023-04-23T05:06:13.912Z,95343.25
2023-04-23T05:08:17.425Z,95347.56
2023-04-23T05:10:20.631Z,95348.38
2023-04-23T05:12:23.368Z,95346.22
2023-04-23T05:14:27.492Z,95328.72
2023-04-23T05:16:30.216Z,95333.81
2023-04-23T05:18:32.965Z,95336.78
2023-04-23T05:20:35.817Z,95205.38
2023-04-23T05:22:38.849Z,95332.75
2023-04-23T05:24:41.880Z,95338.66
2023-04-23T05:26:44.800Z,95327.91
2023-04-23T05:28:47.554Z,95338.66
2023-04-23T05:30:52.396Z,95343.75
2023-04-23T05:32:55.206Z,95339.72
2023-04-23T05:34:58.130Z,95340.81
2023-04-23T05:37:01.452Z,95333.03
2023-04-23T05:39:04.302Z,95343.78
2023-04-23T05:41:07.158Z,95347.53
2023-04-23T05:43:09.917Z,95349.16
2023-04-23T05:45:13.010Z,95337.59
2023-04-23T05:47:17.201Z,95338.66
2023-04-23T05:49:20.014Z,95343.47
2023-04-23T05:51:22.830Z,95305.81
2023-04-23T05:53:25.866Z,95300.44
2023-04-23T05:55:28.688Z,95350.94
2023-04-23T05:57:31.423Z,95343.41
2023-04-23T05:59:34.961Z,95353.06
2023-04-23T06:01:37.713Z,95341.25
2023-04-23T06:03:45.558Z,95351.47
2023-04-23T06:05:48.667Z,95305.25
2023-04-23T06:07:51.690Z,94924.56
2023-04-23T06:09:54.462Z,95350.66
2023-04-23T06:11:57.164Z,95247.22
2023-04-23T06:13:59.951Z,95350.94
2023-04-23T06:16:02.716Z,95355.28
2023-04-23T06:18:05.851Z,95350.94
2023-04-23T06:20:11.938Z,95343.09
2023-04-23T06:22:14.877Z,95357.91
2023-04-23T06:24:17.668Z,95342.25
2023-04-23T06:26:20.721Z,95346.00
2023-04-23T06:28:25.434Z,95330.69
2023-04-23T06:30:48.197Z,95351.13
2023-04-23T06:32:51.236Z,95160.66
2023-04-23T06:35:00.979Z,95353.53
2023-04-23T06:37:06.447Z,95347.34
2023-04-23T06:39:09.334Z,95339.00
2023-04-23T06:41:12.758Z,95342.00
2023-04-23T06:43:15.687Z,95341.13
2023-04-23T06:45:44.507Z,95336.00
2023-04-23T06:47:49.169Z,95344.34
2023-04-23T06:49:52.204Z,95330.13
2023-04-23T06:51:57.032Z,95186.91
2023-04-23T06:54:01.860Z,95334.50
2023-04-23T06:56:05.130Z,95240.47
2023-04-23T06:58:08.056Z,95329.50
2023-04-23T07:00:12.404Z,95264.72
2023-04-23T07:02:17.847Z,95330.13
2023-04-23T07:04:20.827Z,95323.13
2023-04-23T07:06:23.790Z,95328.75
2023-04-23T07:08:26.657Z,95208.09
2023-04-23T07:10:30.765Z,95076.47
2023-04-23T07:12:33.504Z,95323.03
2023-04-23T07:14:36.230Z,95311.97
2023-04-23T07:16:38.997Z,95325.03
2023-04-23T07:18:41.740Z,95321.81
2023-04-23T07:20:44.474Z,95328.78
2023-04-23T07:22:47.948Z,95320.97
2023-04-23T07:24:50.772Z,95297.81
2023-04-23T07:26:55.049Z,95318.94
2023-04-23T07:28:58.108Z,95316.19
2023-04-23T07:31:01.114Z,95304.13
2023-04-23T07:33:04.005Z,95059.94
2023-04-23T07:35:08.561Z,95265.47
2023-04-23T07:37:11.698Z,95301.41
2023-04-23T07:39:14.481Z,95305.03
2023-04-23T07:41:17.293Z,95250.16
2023-04-23T07:43:21.405Z,95304.75
2023-04-23T07:45:24.241Z,95230.56
2023-04-23T07:47:27.067Z,95294.41
2023-04-23T07:49:29.781Z,95312.63
2023-04-23T07:51:33.799Z,95125.50
2023-04-23T07:53:36.990Z,95285.31
2023-04-23T07:55:40.213Z,95300.72
2023-04-23T07:57:43.116Z,95304.88
2023-04-23T07:59:47.128Z,95304.75
2023-04-23T08:01:49.840Z,95290.31
2023-04-23T08:03:53.168Z,95302.38
2023-04-23T08:05:56.653Z,95289.19
2023-04-23T08:07:59.369Z,95300.47
2023-04-23T08:10:05.990Z,95296.38
2023-04-23T08:12:08.744Z,95295.06
2023-04-23T08:14:11.532Z,95293.97
2023-04-23T08:16:15.740Z,95296.38
2023-04-23T08:18:18.648Z,95243.00
2023-04-23T08:20:21.444Z,95291.19
2023-04-23T08:22:24.154Z,95288.56
2023-04-23T08:24:27.107Z,95285.97
2023-04-23T08:26:29.838Z,95277.75
2023-04-23T08:28:32.515Z,95274.44
2023-04-23T08:30:35.281Z,95280.56
2023-04-23T08:32:40.270Z,95261.50
2023-04-23T08:34:43.003Z,95273.44
2023-04-23T08:36:46.370Z,95271.44
2023-04-23T08:38:49.168Z,95265.28
2023-04-23T08:40:58.314Z,95272.00
2023-04-23T08:43:04.457Z,95271.84
2023-04-23T08:45:08.384Z,95257.59
2023-04-23T08:47:13.511Z,95261.81
2023-04-23T08:49:19.139Z,95254.97
2023-04-23T08:51:25.473Z,95268.44
2023-04-23T08:53:28.968Z,95256.81
2023-04-23T08:55:32.448Z,95254.06
2023-04-23T08:57:35.631Z,95252.38
2023-04-23T08:59:40.903Z,94857.53
2023-04-23T09:01:44.310Z,95254.19
2023-04-23T09:03:48.225Z,95233.81
2023-04-23T09:05:53.108Z,95197.88
2023-04-23T09:07:55.850Z,95249.34
2023-04-23T09:09:58.642Z,95248.94
2023-04-23T09:12:01.426Z,95247.06
2023-04-23T09:14:04.819Z,95244.19
2023-04-23T09:16:07.722Z,95247.28
2023-04-23T09:18:11.098Z,95244.03
2023-04-23T09:20:15.813Z,95238.69
2023-04-23T09:22:39.245Z,95192.53
2023-04-23T09:24:43.635Z,95206.75
2023-04-23T09:26:47.333Z,95233.25
2023-04-23T09:28:51.590Z,95241.22
2023-04-23T09:30:54.499Z,95236.38
2023-04-23T09:32:57.341Z,95226.72
2023-04-23T09:35:00.174Z,95225.88
2023-04-23T09:37:04.936Z,95209.34
2023-04-23T09:39:14.472Z,95228.38
2023-04-23T09:41:24.324Z,95222.22
2023-04-23T09:43:31.261Z,95219.59
2023-04-23T09:45:35.252Z,95210.41
2023-04-23T09:47:40.503Z,95205.97
2023-04-23T09:49:49.966Z,95185.84
2023-04-23T09:51:52.689Z,95200.53
2023-04-23T09:53:55.478Z,95203.38
2023-04-23T09:55:59.579Z,95185.63
2023-04-23T09:58:03.336Z,95196.38
2023-04-23T10:00:15.607Z,95199.38
2023-04-23T10:02:18.838Z,95150.75
2023-04-23T10:04:23.591Z,95198.91
2023-04-23T10:06:44.272Z,95187.38
2023-04-23T10:08:54.861Z,95179.25
2023-04-23T10:11:13.608Z,95183.66
2023-04-23T10:13:21.752Z,95179.66
2023-04-23T10:15:26.365Z,95172.22
2023-04-23T10:17:29.343Z,95142.09
2023-04-23T10:19:33.824Z,95188.47
2023-04-23T10:21:46.688Z,95160.22
2023-04-23T10:23:57.878Z,95147.53
2023-04-23T10:26:04.929Z,95095.16
2023-04-23T10:28:11.730Z,95150.41
2023-04-23T10:30:15.657Z,95066.53
2023-04-23T10:32:19.489Z,95151.53
2023-04-23T10:34:23.431Z,95141.53
2023-04-23T10:36:27.803Z,95149.22
2023-04-23T10:38:31.188Z,95132.22
2023-04-23T10:40:37.674Z,95137.34
2023-04-23T10:42:44.231Z,95131.31
2023-04-23T10:44:59.044Z,95140.00
2023-04-23T10:47:04.667Z,95138.41
2023-04-23T10:49:14.810Z,95013.22
2023-04-23T10:52:02.422Z,95132.81
2023-04-23T10:53:43.188Z,95127.47
2023-04-23T10:55:45.942Z,95130.72
2023-04-23T10:58:08.678Z,95130.25
2023-04-23T11:00:13.049Z,95127.09
2023-04-23T11:02:15.941Z,95114.56
2023-04-23T11:04:24.040Z,95109.56
2023-04-23T11:06:57.579Z,95116.19
2023-04-23T11:09:21.500Z,95088.81
2023-04-23T11:11:39.496Z,95111.75
2023-04-23T11:13:54.024Z,95110.69
2023-04-23T11:16:16.407Z,95111.81
2023-04-23T11:18:19.207Z,95107.50
2023-04-23T11:20:23.130Z,95103.53
2023-04-23T11:22:35.716Z,95101.25
2023-04-23T11:24:42.298Z,95032.25
2023-04-23T11:26:46.242Z,95044.69
2023-04-23T11:28:53.250Z,95085.66
2023-04-23T11:30:56.059Z,95082.59
2023-04-23T11:33:00.415Z,95076.88
2023-04-23T11:35:05.304Z,95071.63
2023-04-23T11:37:11.196Z,95057.66
2023-04-23T11:39:13.851Z,95067.63
2023-04-23T11:41:23.441Z,95062.03
2023-04-23T11:43:29.177Z,95046.03
2023-04-23T11:45:33.277Z,95064.06
2023-04-23T11:47:36.321Z,95049.84
2023-04-23T11:49:39.597Z,95058.56
2023-04-23T11:51:44.630Z,95053.22
2023-04-23T11:53:47.718Z,95056.50
2023-04-23T11:55:51.066Z,95049.19
2023-04-23T11:57:53.957Z,95049.00
2023-04-23T11:59:56.692Z,95044.25
2023-04-23T12:02:01.370Z,95027.41
2023-04-23T12:04:10.839Z,95044.22
2023-04-23T12:06:13.779Z,95040.50
2023-04-23T12:08:17.642Z,94969.16
2023-04-23T12:10:21.323Z,95032.00
2023-04-23T12:12:24.065Z,95036.69
2023-04-23T12:14:28.908Z,94970.31
2023-04-23T12:16:37.024Z,95000.63
2023-04-23T12:18:44.403Z,95019.03
2023-04-23T12:20:47.334Z,94953.81
2023-04-23T12:22:50.136Z,95003.97
2023-04-23T12:24:54.442Z,95007.91
2023-04-23T12:27:00.611Z,95005.03
2023-04-23T12:29:03.593Z,94994.81
2023-04-23T12:31:06.415Z,94931.00
2023-04-23T12:33:12.505Z,94997.63
2023-04-23T12:35:16.637Z,94995.84
2023-04-23T12:37:19.481Z,94998.69
2023-04-23T12:39:25.192Z,94989.31
2023-04-23T12:41:27.953Z,94986.66
2023-04-23T12:43:30.951Z,94997.00
2023-04-23T12:45:38.513Z,94924.53
2023-04-23T12:47:41.290Z,94860.50
2023-04-23T12:49:44.352Z,94980.53
2023-04-23T12:51:48.892Z,94648.19
2023-04-23T12:53:51.999Z,94969.66
2023-04-23T12:55:54.885Z,94952.91
2023-04-23T12:57:59.934Z,94965.91
2023-04-23T13:00:03.341Z,94936.88
2023-04-23T13:02:07.319Z,94769.19
2023-04-23T13:04:10.439Z,94954.53
2023-04-23T13:06:13.204Z,94959.34
2023-04-23T13:08:17.396Z,94951.28
2023-04-23T13:10:20.460Z,94943.56
2023-04-23T13:12:23.423Z,94947.06
2023-04-23T13:14:27.185Z,94952.44
2023-04-23T13:16:30.765Z,94921.50
2023-04-23T13:18:33.636Z,94927.50
2023-04-23T13:20:37.416Z,94914.94
2023-04-23T13:22:40.222Z,94878.03
2023-04-23T13:24:44.288Z,94914.75
2023-04-23T13:26:47.065Z,94921.75
2023-04-23T13:28:49.820Z,94924.38
2023-04-23T13:30:52.558Z,94902.41
2023-04-23T13:32:55.622Z,94908.56
2023-04-23T13:35:00.513Z,94855.63
2023-04-23T13:37:05.739Z,94883.91
2023-04-23T13:39:09.024Z,94882.94
2023-04-23T13:41:13.180Z,94878.19
2023-04-23T13:43:16.199Z,94883.03
2023-04-23T13:45:19.169Z,94757.91
2023-04-23T13:47:22.012Z,94867.25
2023-04-23T13:49:24.995Z,94871.03
2023-04-23T13:53:35.742Z,94793.69
2023-04-23T13:55:38.605Z,94859.75
2023-04-23T13:57:42.778Z,94820.59
2023-04-23T13:59:45.671Z,94850.56
2023-04-23T14:01:49.692Z,94603.19
2023-04-23T14:03:52.850Z,94845.84
2023-04-23T14:05:55.617Z,94784.78
2023-04-23T14:07:58.350Z,94845.97
2023-04-23T14:10:01.147Z,94843.09
2023-04-23T14:12:03.898Z,94843.47
2023-04-23T14:14:08.379Z,94790.16
2023-04-23T14:16:11.196Z,94832.41
2023-04-23T14:18:13.949Z,94831.13
2023-04-23T14:20:19.677Z,94821.16
2023-04-23T14:22:22.403Z,94814.94
2023-04-23T14:24:29.507Z,94813.88
2023-04-23T14:26:47.467Z,94810.69
2023-04-23T14:28:53.164Z,94712.66
2023-04-23T14:30:58.828Z,94800.59
2023-04-23T14:33:01.711Z,94806.72
2023-04-23T14:35:04.853Z,94794.59
2023-04-23T14:37:07.675Z,94789.84
2023-04-23T14:39:10.501Z,94765.03
2023-04-23T14:41:13.271Z,94800.53
2023-04-23T14:43:16.352Z,94796.94
2023-04-23T14:45:19.364Z,94809.97
2023-04-23T14:47:23.510Z,94805.19
2023-04-23T14:49:26.811Z,94809.41
2023-04-23T14:51:29.606Z,94810.47
2023-04-23T14:53:32.383Z,94771.19
2023-04-23T14:55:35.370Z,94834.75
2023-04-23T14:57:38.181Z,94835.13
2023-04-23T14:59:41.015Z,94831.09
2023-04-23T15:01:43.965Z,94817.03
2023-04-23T15:03:48.225Z,94822.34
2023-04-23T15:05:51.181Z,94818.22
2023-04-23T15:07:53.931Z,94671.59
2023-04-23T15:09:57.869Z,94811.34
2023-04-23T15:12:00.890Z,94814.47
2023-04-23T15:14:08.942Z,94750.25
2023-04-23T15:16:39.999Z,94792.63
2023-04-23T15:18:49.036Z,94790.47
2023-04-23T15:20:51.781Z,94795.00
2023-04-23T15:22:54.558Z,94787.59
2023-04-23T15:24:57.239Z,94786.09
2023-04-23T15:27:00.788Z,94785.81
2023-04-23T15:29:04.020Z,94782.19
2023-04-23T15:31:06.772Z,94779.31
2023-04-23T15:33:09.613Z,94768.25
2023-04-23T15:35:13.710Z,94777.56
2023-04-23T15:37:16.536Z,94781.16
2023-04-23T15:39:19.280Z,94776.44
2023-04-23T15:41:22.055Z,94683.28
2023-04-23T15:43:24.844Z,94777.34
2023-04-23T15:45:27.589Z,94697.91
2023-04-23T15:47:30.385Z,94753.59
2023-04-23T15:49:33.251Z,94791.59
2023-04-23T15:51:37.444Z,94713.50
2023-04-23T15:53:40.245Z,94822.34
2023-04-23T15:55:42.929Z,94860.69
2023-04-23T15:57:46.411Z,94893.53
2023-04-23T15:59:49.508Z,94921.63
2023-04-23T16:01:52.185Z,94907.59
2023-04-23T16:04:09.812Z,94890.50
2023-04-23T16:06:14.064Z,94847.59
2023-04-23T16:08:18.295Z,94895.97
2023-04-23T16:10:21.009Z,94871.03
2023-04-23T16:12:23.673Z,94871.91
2023-04-23T16:14:26.471Z,94840.91
2023-04-23T16:16:29.173Z,94840.13
2023-04-23T16:18:31.976Z,94833.31
2023-04-23T16:20:35.950Z,94746.09
2023-04-23T16:22:38.613Z,94813.13
2023-04-23T16:24:42.644Z,94814.03
2023-04-23T16:26:45.458Z,94815.22
2023-04-23T16:28:56.330Z,94830.69
2023-04-23T16:31:03.707Z,94807.69
2023-04-23T16:33:07.243Z,94794.28
2023-04-23T16:35:10.510Z,94828.19
2023-04-23T16:37:15.738Z,94797.75
2023-04-23T16:39:18.401Z,94835.09
2023-04-23T16:41:22.721Z,94822.09
2023-04-23T16:43:25.510Z,94829.22
2023-04-23T16:45:28.251Z,94763.03
2023-04-23T16:47:31.362Z,94835.66
2023-04-23T16:49:34.341Z,94835.06
2023-04-23T16:51:37.107Z,94842.69
2023-04-23T16:53:39.875Z,94847.63
2023-04-23T16:55:42.711Z,94837.66
2023-04-23T16:57:46.992Z,94847.06
2023-04-23T16:59:49.715Z,94836.22
2023-04-23T17:01:52.431Z,94778.81
2023-04-23T17:03:55.284Z,94841.53
2023-04-23T17:06:10.011Z,94842.03
2023-04-23T17:08:12.786Z,94824.94
2023-04-23T17:10:17.206Z,94813.69
2023-04-23T17:12:19.870Z,94827.22
2023-04-23T17:14:23.888Z,94835.44
2023-04-23T17:16:27.458Z,94838.13
2023-04-23T17:18:30.432Z,94798.72
2023-04-23T17:20:35.277Z,94849.63
2023-04-23T17:22:38.052Z,94847.94
2023-04-23T17:24:41.120Z,94852.09
2023-04-23T17:26:43.990Z,94838.50
2023-04-23T17:28:46.850Z,94836.53
2023-04-23T17:30:51.012Z,94832.84
2023-04-23T17:32:53.781Z,94821.47
2023-04-23T17:35:08.885Z,94803.28
2023-04-23T17:37:14.020Z,94823.81
2023-04-23T17:39:19.799Z,94832.13
2023-04-23T17:41:23.362Z,94835.59
2023-04-23T17:43:27.560Z,94837.63
2023-04-23T17:45:30.300Z,94833.41
2023-04-23T17:47:34.502Z,94831.53
2023-04-23T17:49:37.653Z,94826.13
2023-04-23T17:51:40.435Z,94843.09
2023-04-23T17:53:48.154Z,94835.88
2023-04-23T17:55:52.051Z,94848.28
2023-04-23T17:57:54.780Z,94843.50
2023-04-23T17:59:59.242Z,94848.78
2023-04-23T18:02:03.276Z,94850.00
2023-04-23T18:04:08.072Z,94841.50
2023-04-23T18:06:11.161Z,94845.31
2023-04-23T18:08:16.191Z,94835.09
2023-04-23T18:10:19.012Z,94801.06
2023-04-23T18:12:22.877Z,94832.91
2023-04-23T18:14:25.957Z,94827.31
2023-04-23T18:16:28.931Z,94842.66
2023-04-23T18:18:31.824Z,94842.41
2023-04-23T18:20:38.428Z,94842.31
2023-04-23T18:22:42.468Z,94798.09
2023-04-23T18:24:46.026Z,94838.13
2023-04-23T18:26:51.892Z,94849.53
2023-04-23T18:28:54.632Z,94843.13
2023-04-23T18:31:02.315Z,94841.13
2023-04-23T18:33:12.018Z,94854.13
2023-04-23T18:35:15.133Z,94771.13
2023-04-23T18:37:37.196Z,94814.97
2023-04-23T18:39:40.512Z,94867.63
2023-04-23T18:41:43.414Z,94878.66
2023-04-23T18:43:46.409Z,94893.75
2023-04-23T18:45:49.138Z,94900.50
2023-04-23T18:47:57.483Z,94904.44
2023-04-23T18:50:05.299Z,94918.28
2023-04-23T18:52:08.266Z,94929.50
2023-04-23T18:54:14.818Z,94965.91
2023-04-23T18:56:17.598Z,94956.78
2023-04-23T18:58:20.322Z,94895.44
2023-04-23T19:00:23.322Z,94966.44
2023-04-23T19:02:35.167Z,94963.03
2023-04-23T19:04:39.084Z,94965.16
2023-04-23T19:06:42.408Z,94883.69
2023-04-23T19:08:45.550Z,94908.41
2023-04-23T19:10:49.670Z,94955.31
2023-04-23T19:12:52.473Z,94972.50
2023-04-23T19:14:56.194Z,94958.84
2023-04-23T19:16:59.014Z,94940.56
2023-04-23T19:19:01.743Z,94930.38
2023-04-23T19:21:04.885Z,94951.06
2023-04-23T19:23:09.048Z,94948.09
2023-04-23T19:25:11.766Z,94924.22
2023-04-23T19:27:15.836Z,94965.28
2023-04-23T19:29:18.553Z,94955.06
2023-04-23T19:31:21.353Z,94962.06
2023-04-23T19:33:24.179Z,94961.53
2023-04-23T19:35:27.040Z,94980.88
2023-04-23T19:37:31.161Z,94968.00
2023-04-23T19:39:33.893Z,94974.47
2023-04-23T19:41:36.669Z,94972.03
2023-04-23T19:43:41.493Z,94974.72
2023-04-23T19:45:44.237Z,94846.84
2023-04-23T19:47:47.057Z,94919.75
2023-04-23T19:49:49.837Z,94963.19
2023-04-23T19:51:54.065Z,94970.44
2023-04-23T19:53:58.220Z,94989.47
2023-04-23T19:56:01.007Z,94973.09
2023-04-23T19:58:06.306Z,94993.75
2023-04-23T20:00:13.859Z,94901.25
2023-04-23T20:02:17.177Z,94984.63
2023-04-23T20:04:20.054Z,94990.53
2023-04-23T20:06:22.896Z,94982.47
2023-04-23T20:08:29.659Z,94991.91
2023-04-23T20:10:32.819Z,94983.56
2023-04-23T20:12:35.739Z,95003.41
2023-04-23T20:14:38.505Z,95004.22
2023-04-23T20:16:42.764Z,95008.25
2023-04-23T20:18:47.200Z,95005.53
2023-04-23T20:20:50.023Z,94997.19
2023-04-23T20:22:52.821Z,94901.94
2023-04-23T20:24:55.589Z,94958.84
2023-04-23T20:26:58.681Z,94910.78
2023-04-23T20:29:01.843Z,94966.28
2023-04-23T20:31:04.670Z,94982.41
2023-04-23T20:33:10.466Z,94968.72
2023-04-23T20:35:13.683Z,94964.69
2023-04-23T20:37:21.320Z,94909.19
2023-04-23T20:39:24.233Z,94974.63
2023-04-23T20:41:29.210Z,94909.97
2023-04-23T20:43:34.322Z,94970.59
2023-04-23T20:45:37.068Z,94929.56
2023-04-23T20:47:39.809Z,94982.13
2023-04-23T20:49:44.083Z,94988.63
2023-04-23T20:51:47.290Z,94957.47
2023-04-23T20:53:50.776Z,94991.03
2023-04-23T20:55:53.465Z,94951.84
2023-04-23T20:57:56.132Z,94986.72
2023-04-23T20:59:58.769Z,94985.94
2023-04-23T21:02:01.598Z,94938.44
2023-04-23T21:04:04.548Z,94998.81
2023-04-23T21:06:11.462Z,94999.66
2023-04-23T21:08:14.783Z,94992.94
2023-04-23T21:10:17.492Z,94987.56
2023-04-23T21:12:20.211Z,94976.56
2023-04-23T21:14:23.197Z,94856.44
2023-04-23T21:16:25.969Z,94980.84
2023-04-23T21:18:28.740Z,94977.63
2023-04-23T21:20:31.466Z,94973.59
2023-04-23T21:22:35.583Z,94974.94
2023-04-23T21:24:38.335Z,94973.31
2023-04-23T21:26:41.106Z,94867.69
2023-04-23T21:28:43.855Z,94965.81
2023-04-23T21:30:50.076Z,94967.13
2023-04-23T21:32:52.927Z,94821.34
2023-04-23T21:34:55.692Z,94958.28
2023-04-23T21:36:58.404Z,94956.41
2023-04-23T21:39:02.784Z,94971.19
2023-04-23T21:41:06.311Z,94977.63
2023-04-23T21:43:09.107Z,94962.84
2023-04-23T21:45:12.363Z,94972.25
2023-04-23T21:47:15.126Z,94966.88
2023-04-23T21:49:18.155Z,94972.25
2023-04-23T21:51:22.221Z,94971.44
2023-04-23T21:53:25.109Z,94949.44
2023-04-23T21:55:30.985Z,94967.41
2023-04-23T21:57:34.676Z,94936.31
2023-04-23T21:59:37.476Z,94972.78
2023-04-23T22:01:40.956Z,94976.56
2023-04-23T22:03:46.535Z,94967.16
2023-04-23T22:05:49.451Z,94887.00
2023-04-23T22:07:55.512Z,94958.28
2023-04-23T22:10:00.225Z,94955.34
2023-04-23T22:12:05.053Z,94926.66
2023-04-23T22:14:07.843Z,94949.97
2023-04-23T22:16:24.429Z,94939.25
2023-04-23T22:18:30.788Z,94949.47
2023-04-23T22:20:33.892Z,94961.53
2023-04-23T22:22:37.671Z,94961.00
2023-04-23T22:24:40.358Z,94963.94
2023-04-23T22:26:43.256Z,94964.72
2023-04-23T22:28:47.449Z,94967.41
2023-04-23T22:30:52.079Z,94967.69
2023-04-23T22:32:54.836Z,94958.31
2023-04-23T22:34:58.048Z,94893.97
2023-04-23T22:37:00.932Z,94964.75
2023-04-23T22:39:05.704Z,94951.59
2023-04-23T22:41:08.577Z,94956.94
2023-04-23T22:43:11.444Z,94941.13
2023-04-23T22:45:15.732Z,94893.19
2023-04-23T22:47:18.639Z,94948.13
2023-04-23T22:49:21.511Z,94948.66
2023-04-23T22:51:24.993Z,94954.56
2023-04-23T22:53:27.730Z,94930.97
2023-04-23T22:55:30.460Z,94914.88
2023-04-23T22:57:33.313Z,94879.50
2023-04-23T22:59:36.324Z,94950.25
2023-04-23T23:01:40.588Z,94943.81
2023-04-23T23:03:43.474Z,94951.34
2023-04-23T23:05:46.279Z,94950.25
2023-04-23T23:07:49.027Z,94943.00
2023-04-23T23:09:51.901Z,94926.72
2023-04-23T23:11:54.660Z,94924.03
2023-04-23T23:13:57.450Z,94914.94
2023-04-23T23:16:02.402Z,94943.88
2023-04-23T23:18:07.252Z,94952.47
2023-04-23T23:20:11.914Z,94947.63
2023-04-23T23:22:14.709Z,94850.56
2023-04-23T23:24:17.646Z,94862.91
2023-04-23T23:26:21.293Z,94937.38
2023-04-23T23:28:24.109Z,94918.84
2023-04-23T23:30:26.936Z,94932.53
2023-04-23T23:32:29.751Z,94909.19
2023-04-23T23:34:33.948Z,94867.34
2023-04-23T23:36:36.717Z,94897.09
2023-04-23T23:38:39.607Z,94915.34
2023-04-23T23:40:42.438Z,94892.00
2023-04-23T23:42:45.303Z,94880.47
2023-04-23T23:44:48.040Z,94903.00
2023-04-23T23:46:51.955Z,94900.31
2023-04-23T23:48:54.781Z,94897.34
2023-04-23T23:50:58.947Z,94897.06
2023-04-23T23:53:01.765Z,94889.84
2023-04-23T23:55:04.827Z,94838.38
2023-04-23T23:57:07.522Z,94874.28
2023-04-23T23:59:10.258Z,94923.34
